sensor_id;sensor_type;location;lat;lon;timestamp;P1;durP1;ratioP1;P2;durP2;ratioP2
60979;SDS011;46851;49.160;8.980;2022-10-03T18:12:44;9.32;;;4.72;;
60979;SDS011;46851;49.160;8.980;2022-10-03T18:23:04;9.40;;;4.80;;
60979;SDS011;46851;49.160;8.980;2022-10-03T18:25:49;7.53;;;4.50;;
60979;SDS011;46851;49.160;8.980;2022-10-03T18:28:34;11.20;;;6.38;;
60979;SDS011;46851;49.160;8.980;2022-10-03T18:31:09;12.13;;;4.88;;
60979;SDS011;46851;49.160;8.980;2022-10-03T18:36:28;10.65;;;4.57;;
60979;SDS011;46851;49.160;8.980;2022-10-03T18:39:00;16.75;;;4.32;;
60979;SDS011;46851;49.160;8.980;2022-10-03T18:41:27;11.45;;;3.63;;
60979;SDS011;46851;49.160;8.980;2022-10-03T18:43:54;6.65;;;3.05;;
60979;SDS011;46851;49.160;8.980;2022-10-03T18:46:23;10.18;;;4.80;;
60979;SDS011;46851;49.160;8.980;2022-10-03T18:48:55;9.75;;;3.90;;
60979;SDS011;46851;49.160;8.980;2022-10-03T18:51:24;12.00;;;5.63;;
60979;SDS011;46851;49.160;8.980;2022-10-03T18:53:58;10.60;;;5.05;;
60979;SDS011;46851;49.160;8.980;2022-10-03T18:56:26;13.45;;;5.25;;
60979;SDS011;46851;49.160;8.980;2022-10-03T19:06:22;14.45;;;5.82;;
60979;SDS011;46851;49.160;8.980;2022-10-03T19:08:51;18.20;;;6.80;;
60979;SDS011;46851;49.160;8.980;2022-10-03T19:11:38;6.82;;;5.72;;
60979;SDS011;46851;49.160;8.980;2022-10-03T19:14:09;9.98;;;5.43;;
60979;SDS011;46851;49.160;8.980;2022-10-03T19:21:42;10.02;;;5.30;;
60979;SDS011;46851;49.160;8.980;2022-10-03T19:24:16;12.20;;;5.43;;
60979;SDS011;46851;49.160;8.980;2022-10-03T19:29:43;12.60;;;5.70;;
60979;SDS011;46851;49.160;8.980;2022-10-03T19:34:41;14.05;;;6.25;;
60979;SDS011;46851;49.160;8.980;2022-10-03T19:37:14;8.00;;;6.75;;
60979;SDS011;46851;49.160;8.980;2022-10-03T19:39:41;18.60;;;7.80;;
60979;SDS011;46851;49.160;8.980;2022-10-03T19:42:17;24.77;;;7.82;;
60979;SDS011;46851;49.160;8.980;2022-10-03T19:44:46;16.17;;;7.10;;
60979;SDS011;46851;49.160;8.980;2022-10-03T19:49:42;10.93;;;6.40;;
60979;SDS011;46851;49.160;8.980;2022-10-03T19:54:43;15.15;;;6.80;;
60979;SDS011;46851;49.160;8.980;2022-10-03T20:00:21;17.85;;;8.95;;
60979;SDS011;46851;49.160;8.980;2022-10-03T20:08:21;21.98;;;11.57;;
60979;SDS011;46851;49.160;8.980;2022-10-03T20:13:20;19.55;;;8.43;;
60979;SDS011;46851;49.160;8.980;2022-10-03T20:15:47;14.95;;;7.28;;
60979;SDS011;46851;49.160;8.980;2022-10-03T20:18:16;14.63;;;7.78;;
60979;SDS011;46851;49.160;8.980;2022-10-03T20:20:46;15.63;;;7.30;;
60979;SDS011;46851;49.160;8.980;2022-10-03T20:23:13;15.43;;;7.40;;
60979;SDS011;46851;49.160;8.980;2022-10-03T20:25:41;10.82;;;6.65;;
60979;SDS011;46851;49.160;8.980;2022-10-03T20:28:14;13.57;;;6.70;;
60979;SDS011;46851;49.160;8.980;2022-10-03T20:30:42;19.52;;;7.05;;
60979;SDS011;46851;49.160;8.980;2022-10-03T20:33:22;14.60;;;7.55;;
60979;SDS011;46851;49.160;8.980;2022-10-03T20:35:59;19.25;;;7.97;;
60979;SDS011;46851;49.160;8.980;2022-10-03T20:38:31;14.70;;;10.75;;
60979;SDS011;46851;49.160;8.980;2022-10-03T20:41:05;13.85;;;8.38;;
60979;SDS011;46851;49.160;8.980;2022-10-03T20:43:38;18.67;;;8.05;;
60979;SDS011;46851;49.160;8.980;2022-10-03T20:48:32;11.30;;;6.78;;
60979;SDS011;46851;49.160;8.980;2022-10-03T20:50:59;14.52;;;7.07;;
60979;SDS011;46851;49.160;8.980;2022-10-03T20:53:26;15.77;;;7.03;;
60979;SDS011;46851;49.160;8.980;2022-10-03T20:58:30;19.13;;;6.88;;
60979;SDS011;46851;49.160;8.980;2022-10-03T21:01:01;19.08;;;6.82;;
60979;SDS011;46851;49.160;8.980;2022-10-03T21:04:00;12.77;;;6.55;;
60979;SDS011;46851;49.160;8.980;2022-10-03T21:06:16;11.88;;;6.32;;
60979;SDS011;46851;49.160;8.980;2022-10-03T21:08:43;13.93;;;6.30;;
60979;SDS011;46851;49.160;8.980;2022-10-03T21:13:39;13.93;;;6.90;;
60979;SDS011;46851;49.160;8.980;2022-10-03T21:16:19;12.77;;;6.95;;
60979;SDS011;46851;49.160;8.980;2022-10-03T21:18:46;14.13;;;6.70;;
60979;SDS011;46851;49.160;8.980;2022-10-03T21:23:47;18.80;;;7.30;;
60979;SDS011;46851;49.160;8.980;2022-10-03T21:26:19;18.50;;;7.88;;
60979;SDS011;46851;49.160;8.980;2022-10-03T21:28:45;15.18;;;7.15;;
60979;SDS011;46851;49.160;8.980;2022-10-03T21:31:27;12.18;;;6.50;;
60979;SDS011;46851;49.160;8.980;2022-10-03T21:34:16;14.10;;;6.90;;
60979;SDS011;46851;49.160;8.980;2022-10-03T21:41:44;18.00;;;6.45;;
60979;SDS011;46851;49.160;8.980;2022-10-03T21:44:29;11.93;;;6.43;;
60979;SDS011;46851;49.160;8.980;2022-10-03T21:47:03;12.85;;;6.40;;
60979;SDS011;46851;49.160;8.980;2022-10-03T21:55:36;21.38;;;13.30;;
60979;SDS011;46851;49.160;8.980;2022-10-03T22:01:23;16.35;;;8.10;;
60979;SDS011;46851;49.160;8.980;2022-10-03T22:04:17;15.97;;;9.83;;
60979;SDS011;46851;49.160;8.980;2022-10-03T22:08:42;19.65;;;10.35;;
60979;SDS011;46851;49.160;8.980;2022-10-03T22:11:21;13.55;;;8.90;;
60979;SDS011;46851;49.160;8.980;2022-10-03T22:16:22;16.13;;;8.13;;
60979;SDS011;46851;49.160;8.980;2022-10-03T22:19:02;21.90;;;8.45;;
60979;SDS011;46851;49.160;8.980;2022-10-03T22:21:33;14.65;;;9.00;;
60979;SDS011;46851;49.160;8.980;2022-10-03T22:24:09;17.00;;;9.43;;
60979;SDS011;46851;49.160;8.980;2022-10-03T22:26:47;17.27;;;10.55;;
60979;SDS011;46851;49.160;8.980;2022-10-03T22:29:20;21.38;;;11.30;;
60979;SDS011;46851;49.160;8.980;2022-10-03T22:34:24;21.83;;;12.15;;
60979;SDS011;46851;49.160;8.980;2022-10-03T22:36:53;24.77;;;11.73;;
60979;SDS011;46851;49.160;8.980;2022-10-03T22:39:19;26.77;;;11.07;;
60979;SDS011;46851;49.160;8.980;2022-10-03T22:41:46;23.73;;;12.52;;
60979;SDS011;46851;49.160;8.980;2022-10-03T22:44:13;23.65;;;11.65;;
60979;SDS011;46851;49.160;8.980;2022-10-03T22:46:41;22.73;;;11.65;;
60979;SDS011;46851;49.160;8.980;2022-10-03T22:49:13;19.98;;;9.80;;
60979;SDS011;46851;49.160;8.980;2022-10-03T22:51:39;17.42;;;9.93;;
60979;SDS011;46851;49.160;8.980;2022-10-03T22:54:08;19.73;;;10.00;;
60979;SDS011;46851;49.160;8.980;2022-10-03T22:59:09;21.27;;;10.68;;
60979;SDS011;46851;49.160;8.980;2022-10-03T23:01:37;18.85;;;9.93;;
60979;SDS011;46851;49.160;8.980;2022-10-03T23:04:06;15.45;;;9.85;;
60979;SDS011;46851;49.160;8.980;2022-10-03T23:09:30;24.52;;;9.55;;
60979;SDS011;46851;49.160;8.980;2022-10-03T23:11:58;19.17;;;9.52;;
60979;SDS011;46851;49.160;8.980;2022-10-03T23:14:26;19.08;;;9.80;;
60979;SDS011;46851;49.160;8.980;2022-10-03T23:19:48;20.98;;;8.98;;
60979;SDS011;46851;49.160;8.980;2022-10-03T23:22:20;17.73;;;9.50;;
60979;SDS011;46851;49.160;8.980;2022-10-03T23:35:17;16.10;;;9.35;;
60979;SDS011;46851;49.160;8.980;2022-10-03T23:37:44;17.88;;;9.27;;
60979;SDS011;46851;49.160;8.980;2022-10-03T23:40:27;15.68;;;8.95;;
60979;SDS011;46851;49.160;8.980;2022-10-03T23:42:57;13.77;;;8.73;;
60979;SDS011;46851;49.160;8.980;2022-10-03T23:45:25;19.63;;;9.48;;
60979;SDS011;46851;49.160;8.980;2022-10-03T23:50:23;21.50;;;9.32;;
60979;SDS011;46851;49.160;8.980;2022-10-03T23:52:52;20.50;;;9.75;;
60979;SDS011;46851;49.160;8.980;2022-10-03T23:55:22;23.77;;;9.23;;
60979;SDS011;46851;49.160;8.980;2022-10-03T23:57:49;13.82;;;8.95;;
